• Join FlightAware (Why Join?)
  • Login
  • US Flag 
12:55PM EST


 

Airport Tracker/Info


-or-


 

Live Flight TrackerFlight Track Log ✈ ASQ5433 ✈ 03-Jul-2013 ✈ KCHA - KDTW

Flight Track Log - Related Links

Times and Time Zones

All times are in EDT time to prevent confusion due to time zone crossing. See the ASQ5433 flight status page for this flight to view local times or setup timezone preferences in your user account.

Time Position Orientation Groundspeed Altitude Reporting Facility
EDT Latitude Longitude Course Direction KTS MPH feet Rate Location/Type
07:34PM 35.0483 -85.0689 50° Northeast 291 335 6,800  Level Atlanta Center
07:35PM 35.0992 -84.9983 49° Northeast 295 339 9,300 1,800 Climbing Atlanta Center
07:36PM 35.1622 -84.9153 47° Northeast 295 339 10,400 1,500 Climbing Atlanta Center
07:37PM 35.2275 -84.8244 49° Northeast 319 367 12,300 1,620 Climbing Atlanta Center
07:38PM 35.3744 -84.6650 54° Northeast  Level FlightAware Approximate
07:38PM 35.2969 -84.7308 48° Northeast 350 403 13,700  Level Atlanta Center
07:39PM 35.4336 -84.5769 50° Northeast  Level FlightAware Approximate
07:39PM 35.3683 -84.6322 48° Northeast 369 425 15,200  Level Atlanta Center
07:40PM 35.4935 -84.4894 50° Northeast  Level FlightAware Approximate
07:40PM 35.4439 -84.5308 48° Northeast 385 443 16,600  Level Atlanta Center
07:41PM 35.5194 -84.4292 48° Northeast 391 450 17,900 1,200 Climbing Atlanta Center
07:42PM 35.5928 -84.3247 49° Northeast 391 450 19,000 1,020 Climbing Atlanta Center
07:43PM 35.6722 -84.2178 48° Northeast 398 458 20,000 960 Climbing Atlanta Center
07:44PM 35.7703 -84.1361 34° Northeast 408 470 21,000 480 Climbing Atlanta Center
07:45PM 35.8811 -84.0644 28° Northeast 427 491 21,000 240 Level Atlanta Center
07:46PM 35.9914 -83.9900 29° Northeast 442 509 21,500 720 Climbing Atlanta Center
07:47PM 36.1019 -83.9153 29° Northeast 448 516 22,500 1,020 Climbing Atlanta Center
07:48PM 36.2242 -83.8300 29° Northeast 443 510 23,600 900 Climbing Indianapolis Center
07:49PM 36.3292 -83.7558 30° Northeast 438 504 24,400 660 Climbing Indianapolis Center
07:50PM 36.4364 -83.6825 29° Northeast 440 506 25,000 480 Climbing Indianapolis Center
07:51PM 36.5531 -83.6036 29° Northeast 446 513 25,500 480 Climbing Indianapolis Center
07:52PM 36.6633 -83.5275 29° Northeast 448 516 26,000 480 Climbing Indianapolis Center
07:53PM 36.7750 -83.4500 29° Northeast 452 520 26,600 540 Climbing Indianapolis Center
07:54PM 36.8847 -83.3733 29° Northeast 448 516 27,200 540 Climbing Indianapolis Center
07:55PM 36.9969 -83.2958 29° Northeast 454 522 27,800 540 Climbing Indianapolis Center
07:56PM 37.1083 -83.2164 30° Northeast 455 524 28,400 600 Climbing Indianapolis Center
07:58PM 37.2378 -83.1250 29° Northeast 451 519 29,100 600 Climbing Indianapolis Center
07:59PM 37.3489 -83.0472 29° Northeast 451 519 29,700 540 Climbing Indianapolis Center
08:00PM 37.4658 -82.9894 21° North 451 519 30,300 480 Climbing Indianapolis Center
08:01PM 37.5869 -82.9450 16° North 451 519 30,800 300 Climbing Indianapolis Center
08:02PM 37.7103 -82.9003 16° North 456 525 31,000 60 Climbing Indianapolis Center
08:03PM 37.8356 -82.8556 16° North 465 535 31,000  Level Indianapolis Center
08:04PM 37.9617 -82.8114 15° North 471 542 31,000  Level Indianapolis Center
08:05PM 38.0911 -82.7653 16° North 480 552 31,000  Level Indianapolis Center
08:06PM 38.2431 -82.7111 16° North 484 557 31,000  Level Indianapolis Center
08:07PM 38.3739 -82.6642 16° North 485 558 31,000  Level Indianapolis Center
08:08PM 38.5058 -82.6172 16° North 490 564 31,000  Level Indianapolis Center
08:09PM 38.6458 -82.5658 16° North 491 565 31,000  Level Indianapolis Center
08:10PM 38.7783 -82.5181 16° North 490 564 31,000  Level Indianapolis Center
08:11PM 38.9119 -82.4694 16° North 494 568 31,000  Level Indianapolis Center
08:12PM 39.0453 -82.4208 16° North 495 570 31,000  Level Indianapolis Center
08:13PM 39.1781 -82.3719 16° North 493 567 31,000  Level Indianapolis Center
08:14PM 39.3128 -82.3206 16° North 499 574 31,000  Level Indianapolis Center
08:15PM 39.4450 -82.2714 16° North 492 566 31,000  Level Indianapolis Center
08:16PM 39.5778 -82.2225 16° North 493 567 31,000  Level Indianapolis Center
08:17PM 39.7350 -82.1819 11° North 492 566 31,000  Level Indianapolis Center
08:18PM 39.8703 -82.2036 353° North 486 559 31,000 -300 Level Indianapolis Center
08:19PM 40.0069 -82.2267 353° North 491 565 30,500 -540 Descending Indianapolis Center
08:20PM 40.1469 -82.2497 353° North 502 578 30,000 -300 Descending Indianapolis Center
08:21PM 40.2986 -82.2750 353° North 502 578 30,000  Level Indianapolis Center
08:22PM 40.4375 -82.2969 353° North 498 573 30,000  Level Indianapolis Center
08:23PM 40.5761 -82.3303 350° North 499 574 30,000  Level Indianapolis Center
08:24PM 40.7108 -82.3678 348° North 492 566 30,000  Level Indianapolis Center
08:25PM 40.8472 -82.4081 347° North 493 567 30,000  Level Indianapolis Center
08:26PM 40.9836 -82.4508 347° North 493 567 30,000 -900 Level Cleveland Center
08:27PM 41.1164 -82.4931 347° North 488 562 28,300 -2,280 Descending Cleveland Center
08:28PM 41.2408 -82.5300 347° North 493 567 25,500 -3,000 Descending Cleveland Center
08:29PM 41.3392 -82.6297 323° Northwest 463 533 22,300 -3,060 Descending Cleveland Center
08:30PM 41.4536 -82.7581 320° Northwest 399 459 18,700 -2,580 Descending Cleveland Center
08:31PM 41.5106 -82.8264 318° Northwest 407 468 17,200 -2,220 Descending Cleveland Center
08:32PM 41.6064 -82.9381 319° Northwest 407 468 14,800 -2,340 Descending Cleveland Center
08:33PM 41.6856 -83.0328 318° Northwest 412 474 12,600 -1,500 Descending Cleveland Center
08:34PM 41.7778 -83.1142 327° Northwest 406 467 11,900 -420 Descending Cleveland Center
08:35PM 41.8742 -83.1878 330° Northwest 401 461 11,800 -360 Descending Cleveland Center
08:36PM 41.9872 -83.2511 337° Northwest 401 461 11,200 -480 Descending Cleveland Center
08:37PM 42.0886 -83.2833 347° North 389 448 10,900 -360 Descending Cleveland Center
08:38PM 42.1728 -83.2533 15° North 326 375 10,500 -660 Descending Cleveland Center
08:39PM 42.2322 -83.2025 32° Northeast 274 315 9,600 -1,140 Descending Cleveland Center
08:40PM 42.2858 -83.1400 41° Northeast 256 295 8,300 -1,260 Descending Cleveland Center
08:42PM 42.3603 -83.0756 33° Northeast 241 277 6,800 -1,200 Descending Cleveland Center
08:43PM 42.4050 -83.1225 322° Northwest 203 234 5,600 -1,020 Descending Cleveland Center
08:44PM 42.3975 -83.1783 260° West 167 192 4,800 -900 Descending Cleveland Center
08:45PM 42.3589 -83.2303 225° Southwest 163 188 3,700 -960 Descending Cleveland Center